createdAt,value
2024-05-09T00:00:39.200Z,40.75
2024-05-09T00:01:35.479Z,40.75
2024-05-09T00:02:34.477Z,40.75
2024-05-09T00:03:34.451Z,40.71
2024-05-09T00:04:34.508Z,40.74
2024-05-09T00:05:34.758Z,40.71
2024-05-09T00:06:34.411Z,40.70
2024-05-09T00:07:34.468Z,40.71
2024-05-09T00:08:34.582Z,40.71
2024-05-09T00:09:34.407Z,40.68
2024-05-09T00:10:37.345Z,40.69
2024-05-09T00:11:34.561Z,40.69
2024-05-09T00:12:34.916Z,40.66
2024-05-09T00:13:34.448Z,40.70
2024-05-09T00:14:34.471Z,40.67
2024-05-09T00:15:35.072Z,40.66
2024-05-09T00:16:34.417Z,40.66
2024-05-09T00:17:34.972Z,40.65
2024-05-09T00:18:34.521Z,40.67
2024-05-09T00:19:35.467Z,40.64
2024-05-09T00:20:38.784Z,40.62
2024-05-09T00:21:35.456Z,40.65
2024-05-09T00:22:34.573Z,40.62
2024-05-09T00:23:34.616Z,40.62
2024-05-09T00:24:34.480Z,40.61
2024-05-09T00:25:34.463Z,40.63
2024-05-09T00:26:34.498Z,40.58
2024-05-09T00:27:34.883Z,40.60
2024-05-09T00:28:34.450Z,40.62
2024-05-09T00:29:34.539Z,40.61
2024-05-09T00:30:36.621Z,40.61
2024-05-09T00:31:34.457Z,40.59
2024-05-09T00:32:34.573Z,40.59
2024-05-09T00:33:34.684Z,40.60
2024-05-09T00:34:34.493Z,40.61
2024-05-09T00:35:34.607Z,40.58
2024-05-09T00:36:34.461Z,40.58
2024-05-09T00:37:34.895Z,40.59
2024-05-09T00:38:34.481Z,40.59
2024-05-09T00:39:34.499Z,40.58
2024-05-09T00:40:39.173Z,40.57
2024-05-09T00:41:35.597Z,40.58
2024-05-09T00:42:34.511Z,40.59
2024-05-09T00:43:34.478Z,40.57
2024-05-09T00:44:34.533Z,40.56
2024-05-09T00:45:34.548Z,40.57
2024-05-09T00:46:34.490Z,40.55
2024-05-09T00:47:34.747Z,40.57
2024-05-09T00:48:34.657Z,40.55
2024-05-09T00:49:34.709Z,40.55
2024-05-09T00:50:36.881Z,40.53
2024-05-09T00:51:34.511Z,40.54
2024-05-09T00:52:34.575Z,40.52
2024-05-09T00:53:34.677Z,40.53
2024-05-09T00:54:34.514Z,40.50
2024-05-09T00:55:34.517Z,40.52
2024-05-09T00:56:34.556Z,40.50
2024-05-09T00:57:34.523Z,40.51
2024-05-09T00:58:34.515Z,40.49
2024-05-09T00:59:34.600Z,40.52
2024-05-09T01:00:39.184Z,40.51
2024-05-09T01:01:35.571Z,40.50
2024-05-09T01:02:34.605Z,40.50
2024-05-09T01:03:34.689Z,40.51
2024-05-09T01:04:34.536Z,40.51
2024-05-09T01:05:35.025Z,40.49
2024-05-09T01:06:34.541Z,40.49
2024-05-09T01:07:34.914Z,40.47
2024-05-09T01:08:34.652Z,40.49
2024-05-09T01:09:34.526Z,40.49
2024-05-09T01:10:35.785Z,40.49
2024-05-09T01:11:34.604Z,40.46
2024-05-09T01:12:34.615Z,40.45
2024-05-09T01:13:34.531Z,40.46
2024-05-09T01:14:34.587Z,40.45
2024-05-09T01:15:34.642Z,40.47
2024-05-09T01:16:34.539Z,40.45
2024-05-09T01:17:34.812Z,40.46
2024-05-09T01:18:34.712Z,40.45
2024-05-09T01:19:34.595Z,40.46
2024-05-09T01:20:41.266Z,40.46
2024-05-09T01:21:35.583Z,40.46
2024-05-09T01:22:34.882Z,40.46
2024-05-09T01:23:34.590Z,40.44
2024-05-09T01:24:34.555Z,40.46
2024-05-09T01:25:34.573Z,40.44
2024-05-09T01:26:34.601Z,40.44
2024-05-09T01:27:34.574Z,40.44
2024-05-09T01:28:34.552Z,40.41
2024-05-09T01:29:34.634Z,40.42
2024-05-09T01:30:36.946Z,40.41
2024-05-09T01:31:34.614Z,40.42
2024-05-09T01:32:34.743Z,40.43
2024-05-09T01:33:34.896Z,40.43
2024-05-09T01:34:34.563Z,40.41
2024-05-09T01:35:34.685Z,40.42
2024-05-09T01:36:34.585Z,40.40
2024-05-09T01:37:34.932Z,40.41
2024-05-09T01:38:34.682Z,40.42
2024-05-09T01:39:34.601Z,40.39
2024-05-09T01:40:38.456Z,40.39
2024-05-09T01:41:35.621Z,40.39
2024-05-09T01:42:34.635Z,40.40
2024-05-09T01:43:34.619Z,40.38
2024-05-09T01:44:34.619Z,40.38
2024-05-09T01:45:34.598Z,40.40
2024-05-09T01:46:34.583Z,40.39
2024-05-09T01:47:34.857Z,40.38
2024-05-09T01:48:34.763Z,40.38
2024-05-09T01:49:34.897Z,40.38
2024-05-09T01:50:39.456Z,40.34
2024-05-09T01:51:35.604Z,40.37
2024-05-09T01:52:34.599Z,40.34
2024-05-09T01:53:34.791Z,40.33
2024-05-09T01:54:34.590Z,40.31
2024-05-09T01:55:34.627Z,40.32
2024-05-09T01:56:34.693Z,40.32
2024-05-09T01:57:34.625Z,40.32
2024-05-09T01:58:34.619Z,40.32
2024-05-09T01:59:34.650Z,40.30
2024-05-09T02:00:40.014Z,40.30
2024-05-09T02:01:55.598Z,40.32
2024-05-09T02:02:35.741Z,40.32
2024-05-09T02:03:34.795Z,40.33
2024-05-09T02:04:34.711Z,40.31
2024-05-09T02:05:34.800Z,40.29
2024-05-09T02:06:34.617Z,40.29
2024-05-09T02:07:34.623Z,40.28
2024-05-09T02:08:34.765Z,40.32
2024-05-09T02:09:34.697Z,40.32
2024-05-09T02:10:34.606Z,40.32
2024-05-09T02:11:34.705Z,40.29
2024-05-09T02:12:35.027Z,40.27
2024-05-09T02:13:34.612Z,40.27
2024-05-09T02:14:34.720Z,40.28
2024-05-09T02:15:34.628Z,40.26
2024-05-09T02:16:34.634Z,40.27
2024-05-09T02:17:35.058Z,40.26
2024-05-09T02:18:34.713Z,40.25
2024-05-09T02:19:34.754Z,40.26
2024-05-09T02:20:36.717Z,40.26
2024-05-09T02:21:34.725Z,40.25
2024-05-09T02:22:34.768Z,40.24
2024-05-09T02:23:35.460Z,40.26
2024-05-09T02:24:34.825Z,40.24
2024-05-09T02:25:35.020Z,40.23
2024-05-09T02:26:34.893Z,40.24
2024-05-09T02:27:34.916Z,40.23
2024-05-09T02:28:34.965Z,40.22
2024-05-09T02:29:35.029Z,40.23
2024-05-09T02:30:39.694Z,40.23
2024-05-09T02:31:36.022Z,40.24
2024-05-09T02:32:35.110Z,40.25
2024-05-09T02:33:35.239Z,40.25
2024-05-09T02:34:35.017Z,40.24
2024-05-09T02:35:35.138Z,40.22
2024-05-09T02:36:35.020Z,40.24
2024-05-09T02:37:35.247Z,40.23
2024-05-09T02:38:35.064Z,40.21
2024-05-09T02:39:35.023Z,40.22
2024-05-09T02:40:37.806Z,40.22
2024-05-09T02:41:35.089Z,40.24
2024-05-09T02:42:34.990Z,40.22
2024-05-09T02:43:35.000Z,40.21
2024-05-09T02:44:35.038Z,40.19
2024-05-09T02:45:35.014Z,40.20
2024-05-09T02:46:34.998Z,40.20
2024-05-09T02:47:35.134Z,40.19
2024-05-09T02:48:35.100Z,40.18
2024-05-09T02:49:35.061Z,40.16
2024-05-09T02:50:39.104Z,40.18
2024-05-09T02:51:36.009Z,40.18
2024-05-09T02:52:35.020Z,40.17
2024-05-09T02:53:35.107Z,40.18
2024-05-09T02:54:35.023Z,40.17
2024-05-09T02:55:35.060Z,40.18
2024-05-09T02:56:35.112Z,40.18
2024-05-09T02:57:35.030Z,40.16
2024-05-09T02:58:35.030Z,40.16
2024-05-09T02:59:35.073Z,40.17
2024-05-09T03:00:39.498Z,40.16
2024-05-09T03:01:36.121Z,40.16
2024-05-09T03:02:35.157Z,40.15
2024-05-09T03:03:35.223Z,40.14
2024-05-09T03:04:35.211Z,40.13
2024-05-09T03:05:35.200Z,40.13
2024-05-09T03:06:35.051Z,40.15
2024-05-09T03:07:35.055Z,40.13
2024-05-09T03:08:35.233Z,40.12
2024-05-09T03:09:35.042Z,40.13
2024-05-09T03:10:37.247Z,40.14
2024-05-09T03:11:35.140Z,40.12
2024-05-09T03:12:37.887Z,40.12
2024-05-09T03:13:35.058Z,40.12
2024-05-09T03:14:35.101Z,40.13
2024-05-09T03:15:35.052Z,40.11
2024-05-09T03:16:35.077Z,40.11
2024-05-09T03:17:35.230Z,40.12
2024-05-09T03:18:35.157Z,40.12
2024-05-09T03:19:35.122Z,40.13
2024-05-09T03:20:36.318Z,40.11
2024-05-09T03:21:35.086Z,40.11
2024-05-09T03:22:35.092Z,40.10
2024-05-09T03:23:35.138Z,40.07
2024-05-09T03:24:35.064Z,40.08
2024-05-09T03:25:35.111Z,40.08
2024-05-09T03:26:35.152Z,40.09
2024-05-09T03:27:35.101Z,40.07
2024-05-09T03:28:35.079Z,40.06
2024-05-09T03:29:35.120Z,40.09
2024-05-09T03:30:40.501Z,40.09
2024-05-09T03:31:36.126Z,40.08
2024-05-09T03:32:35.283Z,40.07
2024-05-09T03:33:35.437Z,40.08
2024-05-09T03:34:35.113Z,40.09
2024-05-09T03:35:35.227Z,40.06
2024-05-09T03:36:35.120Z,40.05
2024-05-09T03:37:35.131Z,40.05
2024-05-09T03:38:35.181Z,40.06
2024-05-09T03:39:35.112Z,40.07
2024-05-09T03:40:35.142Z,40.05
2024-05-09T03:41:35.176Z,40.04
2024-05-09T03:42:35.140Z,40.01
2024-05-09T03:43:35.112Z,40.04
2024-05-09T03:44:35.167Z,40.02
2024-05-09T03:45:35.117Z,40.05
2024-05-09T03:46:35.128Z,40.04
2024-05-09T03:47:35.662Z,40.04
2024-05-09T03:48:35.245Z,40.04
2024-05-09T03:49:35.157Z,40.03
2024-05-09T03:50:36.337Z,40.02
2024-05-09T03:51:35.127Z,40.02
2024-05-09T03:52:35.162Z,40.04
2024-05-09T03:53:35.275Z,40.04
2024-05-09T03:54:35.184Z,40.01
2024-05-09T03:55:35.223Z,40.02
2024-05-09T03:56:35.355Z,40.03
2024-05-09T03:57:35.283Z,40.00
2024-05-09T03:58:35.333Z,40.00
2024-05-09T03:59:35.374Z,40.01
2024-05-09T04:00:38.695Z,40.00
2024-05-09T04:01:35.510Z,40.01
2024-05-09T04:02:35.441Z,40.03
2024-05-09T04:03:35.482Z,39.99
2024-05-09T04:04:35.470Z,40.01
2024-05-09T04:05:35.498Z,40.00
2024-05-09T04:06:35.414Z,40.00
2024-05-09T04:07:35.419Z,39.99
2024-05-09T04:08:35.565Z,39.97
2024-05-09T04:09:35.411Z,39.98
2024-05-09T04:10:35.809Z,39.97
2024-05-09T04:11:35.519Z,39.94
2024-05-09T04:12:35.457Z,39.95
2024-05-09T04:13:35.428Z,39.96
2024-05-09T04:14:35.495Z,39.97
2024-05-09T04:15:35.403Z,39.97
2024-05-09T04:16:35.459Z,39.93
2024-05-09T04:17:35.672Z,39.95
2024-05-09T04:18:35.504Z,39.96
2024-05-09T04:19:35.478Z,39.97
2024-05-09T04:20:39.051Z,39.96
2024-05-09T04:21:36.458Z,39.97
2024-05-09T04:22:35.504Z,39.97
2024-05-09T04:23:35.540Z,39.95
2024-05-09T04:24:35.442Z,39.95
2024-05-09T04:25:35.467Z,39.94
2024-05-09T04:26:35.541Z,39.96
2024-05-09T04:27:35.452Z,39.98
2024-05-09T04:28:35.442Z,39.96
2024-05-09T04:29:35.550Z,39.97
2024-05-09T04:30:39.258Z,39.97
2024-05-09T04:31:36.462Z,39.96
2024-05-09T04:33:35.715Z,39.97
2024-05-09T04:34:35.592Z,39.94
2024-05-09T04:35:35.524Z,39.96
2024-05-09T04:36:35.461Z,39.94
2024-05-09T04:37:35.503Z,39.92
2024-05-09T04:38:35.539Z,39.94
2024-05-09T04:39:36.483Z,39.92
2024-05-09T04:40:37.103Z,39.91
2024-05-09T04:41:35.560Z,39.92
2024-05-09T04:42:35.475Z,39.92
2024-05-09T04:43:35.501Z,39.90
2024-05-09T04:44:35.536Z,39.91
2024-05-09T04:45:35.881Z,39.94
2024-05-09T04:46:35.566Z,39.91
2024-05-09T04:47:42.968Z,39.97
2024-05-09T04:48:42.955Z,39.96
2024-05-09T04:49:42.872Z,39.93
2024-05-09T04:50:43.014Z,39.93
2024-05-09T04:51:42.878Z,39.92
2024-05-09T04:52:42.881Z,39.92
2024-05-09T04:54:42.893Z,39.91
2024-05-09T04:55:42.888Z,39.90
2024-05-09T04:56:42.966Z,39.89
2024-05-09T04:57:42.917Z,39.88
2024-05-09T04:58:42.896Z,39.88
2024-05-09T04:59:42.916Z,39.90
2024-05-09T05:00:43.267Z,39.89
2024-05-09T05:01:42.884Z,39.90
2024-05-09T05:02:43.142Z,39.90
2024-05-09T05:03:43.068Z,39.91
2024-05-09T05:04:42.953Z,39.91
2024-05-09T05:05:44.005Z,39.88
2024-05-09T05:06:42.911Z,39.89
2024-05-09T05:07:42.907Z,39.88
2024-05-09T05:08:42.939Z,39.90
2024-05-09T05:09:42.922Z,39.87
2024-05-09T05:10:42.970Z,39.89
2024-05-09T05:11:43.053Z,39.87
2024-05-09T05:12:42.954Z,39.90
2024-05-09T05:13:42.935Z,39.89
2024-05-09T05:14:42.906Z,39.90
2024-05-09T05:15:42.922Z,39.90
2024-05-09T05:16:42.926Z,39.88
2024-05-09T05:17:43.039Z,39.89
2024-05-09T05:18:42.991Z,39.87
2024-05-09T05:19:42.978Z,39.91
2024-05-09T05:20:43.127Z,39.91
2024-05-09T05:21:42.925Z,39.88
2024-05-09T05:22:42.948Z,39.87
2024-05-09T05:23:42.977Z,39.87
2024-05-09T05:24:42.964Z,39.86
2024-05-09T05:25:42.950Z,39.86
2024-05-09T05:26:42.979Z,39.88
2024-05-09T05:27:42.955Z,39.87
2024-05-09T05:28:42.951Z,39.88
2024-05-09T05:29:43.033Z,39.88
2024-05-09T05:30:42.987Z,39.87
2024-05-09T05:31:43.043Z,39.88
2024-05-09T05:32:43.342Z,39.88
2024-05-09T05:33:43.149Z,39.87
2024-05-09T05:34:43.076Z,39.89
2024-05-09T05:35:43.366Z,39.86
2024-05-09T05:36:43.113Z,39.88
2024-05-09T05:37:43.132Z,39.87
2024-05-09T05:38:43.254Z,39.85
2024-05-09T05:39:43.204Z,39.87
2024-05-09T05:40:43.193Z,39.89
2024-05-09T05:41:43.219Z,39.87
2024-05-09T05:42:43.227Z,39.86
2024-05-09T05:43:43.231Z,39.86
2024-05-09T05:44:43.267Z,39.87
2024-05-09T05:45:43.276Z,39.84
2024-05-09T05:46:43.301Z,39.86
2024-05-09T05:47:43.457Z,39.86
2024-05-09T05:48:43.610Z,39.86
2024-05-09T05:49:43.373Z,39.86
2024-05-09T05:50:43.423Z,39.85
2024-05-09T05:51:43.379Z,39.85
2024-05-09T05:52:43.412Z,39.87
2024-05-09T05:53:43.427Z,39.86
2024-05-09T05:54:43.463Z,39.87
2024-05-09T05:55:43.467Z,39.83
2024-05-09T05:56:43.519Z,39.84
2024-05-09T05:57:43.529Z,39.86
2024-05-09T05:58:43.543Z,39.85
2024-05-09T05:59:43.655Z,39.87
2024-05-09T06:00:43.583Z,39.85
2024-05-09T06:01:43.619Z,39.85
2024-05-09T06:02:43.856Z,39.83
2024-05-09T06:03:43.785Z,39.82
2024-05-09T06:04:43.793Z,39.84
2024-05-09T06:05:44.311Z,39.85
2024-05-09T06:06:43.708Z,39.84
2024-05-09T06:07:44.021Z,39.83
2024-05-09T06:08:43.890Z,39.83
2024-05-09T06:09:45.291Z,39.83
2024-05-09T06:10:43.885Z,39.81
2024-05-09T06:11:43.892Z,39.81
2024-05-09T06:12:43.759Z,39.80
2024-05-09T06:13:43.818Z,39.82
2024-05-09T06:14:43.779Z,39.83
2024-05-09T06:15:44.115Z,39.79
2024-05-09T06:16:43.830Z,39.78
2024-05-09T06:17:43.923Z,39.79
2024-05-09T06:18:43.891Z,39.79
2024-05-09T06:19:43.884Z,39.77
2024-05-09T06:20:44.440Z,39.76
2024-05-09T06:21:43.773Z,39.76
2024-05-09T06:22:43.800Z,39.78
2024-05-09T06:23:43.879Z,39.77
2024-05-09T06:24:43.818Z,39.78
2024-05-09T06:25:44.772Z,39.74
2024-05-09T06:26:43.886Z,39.74
2024-05-09T06:27:43.801Z,39.75
2024-05-09T06:28:43.813Z,39.72
2024-05-09T06:29:43.863Z,39.73
2024-05-09T06:30:43.799Z,39.73
2024-05-09T06:31:43.842Z,39.73
2024-05-09T06:32:44.031Z,39.72
2024-05-09T06:33:43.955Z,39.74
2024-05-09T06:34:43.972Z,39.73
2024-05-09T06:35:43.989Z,39.73
2024-05-09T06:36:43.814Z,39.71
2024-05-09T06:37:44.014Z,39.71
2024-05-09T06:38:43.857Z,39.70
2024-05-09T06:39:43.820Z,39.70
2024-05-09T06:40:44.626Z,39.70
2024-05-09T06:41:43.893Z,39.69
2024-05-09T06:42:43.840Z,39.70
2024-05-09T06:43:43.818Z,39.70
2024-05-09T06:44:43.881Z,39.68
2024-05-09T06:45:43.816Z,39.68
2024-05-09T06:46:43.845Z,39.68
2024-05-09T06:47:43.973Z,39.68
2024-05-09T06:48:43.930Z,39.66
2024-05-09T06:49:43.844Z,39.67
2024-05-09T06:50:43.864Z,39.66
2024-05-09T06:51:43.837Z,39.66
2024-05-09T06:52:43.835Z,39.65
2024-05-09T06:53:43.839Z,39.63
2024-05-09T06:54:43.827Z,39.62
2024-05-09T06:55:43.837Z,39.62
2024-05-09T06:56:43.933Z,39.59
2024-05-09T06:57:43.837Z,39.60
2024-05-09T06:58:43.829Z,39.61
2024-05-09T06:59:43.896Z,39.58
2024-05-09T07:00:43.988Z,39.59
2024-05-09T07:01:43.879Z,39.58
2024-05-09T07:02:44.006Z,39.57
2024-05-09T07:03:43.962Z,39.53
2024-05-09T07:04:43.870Z,39.55
2024-05-09T07:05:43.894Z,39.54
2024-05-09T07:06:43.869Z,39.53
2024-05-09T07:07:43.859Z,39.53
2024-05-09T07:08:43.929Z,39.53
2024-05-09T07:09:44.866Z,39.52
2024-05-09T07:10:43.936Z,39.51
2024-05-09T07:11:43.956Z,39.49
2024-05-09T07:12:44.017Z,39.49
2024-05-09T07:13:43.849Z,39.52
2024-05-09T07:14:43.947Z,39.50
2024-05-09T07:15:43.927Z,39.47
2024-05-09T07:16:43.842Z,39.49
2024-05-09T07:17:44.031Z,39.50
2024-05-09T07:18:44.015Z,39.49
2024-05-09T07:19:43.910Z,39.48
2024-05-09T07:20:43.903Z,39.46
2024-05-09T07:21:43.838Z,39.46
2024-05-09T07:22:43.864Z,39.44
2024-05-09T07:23:46.824Z,39.45
2024-05-09T07:24:43.876Z,39.44
2024-05-09T07:25:43.856Z,39.41
2024-05-09T07:26:43.897Z,39.40
2024-05-09T07:27:43.865Z,39.35
2024-05-09T07:28:43.856Z,39.38
2024-05-09T07:29:43.962Z,39.39
2024-05-09T07:30:43.878Z,39.37
2024-05-09T07:31:43.849Z,39.36
2024-05-09T07:32:44.097Z,39.33
2024-05-09T07:33:43.966Z,39.34
2024-05-09T07:34:43.869Z,39.31
2024-05-09T07:35:43.943Z,39.32
2024-05-09T07:36:43.880Z,39.29
2024-05-09T07:37:43.892Z,39.29
2024-05-09T07:38:43.985Z,39.28
2024-05-09T07:39:43.873Z,39.26
2024-05-09T07:40:43.887Z,39.27
2024-05-09T07:41:43.923Z,39.26
2024-05-09T07:42:43.904Z,39.23
2024-05-09T07:43:43.903Z,39.25
2024-05-09T07:44:43.943Z,39.23
2024-05-09T07:45:51.302Z,39.25
2024-05-09T07:47:48.282Z,39.27
2024-05-09T07:51:32.047Z,39.24
2024-05-09T07:53:17.133Z,39.22
2024-05-09T07:53:34.452Z,39.25
2024-05-09T07:53:48.359Z,39.25
2024-05-09T07:54:45.049Z,39.24
2024-05-09T07:55:44.119Z,39.21
2024-05-09T07:56:44.328Z,39.21
2024-05-09T07:57:43.922Z,39.23
2024-05-09T07:58:43.902Z,39.18
2024-05-09T07:59:43.927Z,39.17
2024-05-09T08:00:44.010Z,39.16
2024-05-09T08:01:44.044Z,39.16
2024-05-09T08:02:43.988Z,39.16
2024-05-09T08:03:44.110Z,39.12
2024-05-09T08:04:44.041Z,39.09
2024-05-09T08:05:44.067Z,39.07
2024-05-09T08:06:44.587Z,39.08
2024-05-09T08:07:43.945Z,39.08
2024-05-09T08:08:43.948Z,39.05
2024-05-09T08:09:44.030Z,39.05
2024-05-09T08:10:44.022Z,39.03
2024-05-09T08:11:43.960Z,39.04
2024-05-09T08:12:43.978Z,39.02
2024-05-09T08:13:43.961Z,39.01
2024-05-09T08:14:43.945Z,38.99
2024-05-09T08:15:43.992Z,38.99
2024-05-09T08:16:44.034Z,38.98
2024-05-09T08:17:43.996Z,38.98
2024-05-09T08:18:44.020Z,38.96
2024-05-09T08:19:43.993Z,38.95
2024-05-09T08:20:43.952Z,38.98
2024-05-09T08:21:43.953Z,38.95
2024-05-09T08:22:43.972Z,38.92
2024-05-09T08:23:43.962Z,38.95
2024-05-09T08:24:44.031Z,38.93
2024-05-09T08:25:43.941Z,38.91
2024-05-09T08:26:43.960Z,38.93
2024-05-09T08:27:44.021Z,38.92
2024-05-09T08:28:43.978Z,38.91
2024-05-09T08:29:44.052Z,38.91
2024-05-09T08:30:44.196Z,38.89
2024-05-09T08:31:43.977Z,38.87
2024-05-09T08:32:44.104Z,38.87
2024-05-09T08:33:44.138Z,38.87
2024-05-09T08:34:44.030Z,38.88
2024-05-09T08:35:43.983Z,38.87
2024-05-09T08:36:44.004Z,38.88
2024-05-09T08:37:44.060Z,38.87
2024-05-09T08:38:43.981Z,38.85
2024-05-09T08:39:44.000Z,38.86
2024-05-09T08:40:44.167Z,38.86
2024-05-09T08:41:43.993Z,38.84
2024-05-09T08:42:44.044Z,38.85
2024-05-09T08:43:43.986Z,38.82
2024-05-09T08:44:43.969Z,38.82
2024-05-09T08:45:45.288Z,38.80
2024-05-09T08:46:44.000Z,38.80
2024-05-09T08:47:44.151Z,38.78
2024-05-09T08:48:44.270Z,38.78
2024-05-09T08:49:44.052Z,38.75
2024-05-09T08:50:45.080Z,38.72
2024-05-09T08:51:44.024Z,38.72
2024-05-09T08:52:44.047Z,38.73
2024-05-09T08:53:43.990Z,38.71
2024-05-09T08:54:44.034Z,38.72
2024-05-09T08:55:44.561Z,38.68
2024-05-09T08:56:44.009Z,38.69
2024-05-09T08:57:44.062Z,38.72
2024-05-09T08:58:44.018Z,38.70
2024-05-09T08:59:43.983Z,38.71
2024-05-09T09:00:44.321Z,38.69
2024-05-09T09:01:44.153Z,38.68
2024-05-09T09:02:44.228Z,38.65
2024-05-09T09:03:44.213Z,38.67
2024-05-09T09:04:44.179Z,38.68
2024-05-09T09:05:44.087Z,38.67
2024-05-09T09:06:44.217Z,38.64
2024-05-09T09:07:44.027Z,38.64
2024-05-09T09:08:43.991Z,38.65
2024-05-09T09:09:44.317Z,38.62
2024-05-09T09:10:44.209Z,38.62
2024-05-09T09:11:44.043Z,38.59
2024-05-09T09:12:44.086Z,38.59
2024-05-09T09:13:44.018Z,38.57
2024-05-09T09:14:44.055Z,38.58
2024-05-09T09:15:44.063Z,38.55
2024-05-09T09:16:44.017Z,38.54
2024-05-09T09:17:44.098Z,38.54
2024-05-09T09:18:44.264Z,38.53
2024-05-09T09:19:44.102Z,38.51
2024-05-09T09:20:44.180Z,38.51
2024-05-09T09:21:44.071Z,38.51
2024-05-09T09:22:44.053Z,38.50
2024-05-09T09:23:44.051Z,38.48
2024-05-09T09:24:44.044Z,38.49
2024-05-09T09:25:44.034Z,38.48
2024-05-09T09:26:44.012Z,38.45
2024-05-09T09:27:44.076Z,38.45
2024-05-09T09:28:44.068Z,38.44
2024-05-09T09:29:44.035Z,38.42
2024-05-09T09:30:44.107Z,38.42
2024-05-09T09:31:44.044Z,38.41
2024-05-09T09:32:44.120Z,38.42
2024-05-09T09:33:44.282Z,38.37
2024-05-09T09:34:44.094Z,38.39
2024-05-09T09:35:44.062Z,38.38
2024-05-09T09:36:44.082Z,38.36
2024-05-09T09:37:44.054Z,38.35
2024-05-09T09:38:44.090Z,38.32
2024-05-09T09:39:48.762Z,38.38
2024-05-09T09:40:49.127Z,38.33
2024-05-09T09:41:44.060Z,38.34
2024-05-09T09:42:44.115Z,38.34
2024-05-09T09:43:44.066Z,38.32
2024-05-09T09:44:47.918Z,38.32
2024-05-09T09:45:45.110Z,38.33
2024-05-09T09:46:44.049Z,38.33
2024-05-09T09:47:44.192Z,38.30
2024-05-09T09:48:44.272Z,38.29
2024-05-09T09:49:44.215Z,38.29
2024-05-09T09:50:44.070Z,38.30
2024-05-09T09:51:44.142Z,38.30
2024-05-09T09:52:44.063Z,38.30
2024-05-09T09:53:44.063Z,38.30
2024-05-09T09:54:44.150Z,38.29
2024-05-09T09:55:44.085Z,38.29
2024-05-09T09:56:44.085Z,38.30
2024-05-09T09:57:44.125Z,38.27
2024-05-09T09:58:44.090Z,38.29
2024-05-09T09:59:44.128Z,38.26
2024-05-09T10:00:44.487Z,38.27
2024-05-09T10:01:44.165Z,38.26
2024-05-09T10:02:44.119Z,38.27
2024-05-09T10:03:44.257Z,38.26
2024-05-09T10:04:44.254Z,38.27
2024-05-09T10:05:46.467Z,38.25
2024-05-09T10:06:44.144Z,38.27
2024-05-09T10:07:44.127Z,38.27
2024-05-09T10:08:44.589Z,38.25
2024-05-09T10:09:44.180Z,38.25
2024-05-09T10:10:44.440Z,38.23
2024-05-09T10:11:49.169Z,38.26
2024-05-09T10:12:45.139Z,38.25
2024-05-09T10:13:44.132Z,38.25
2024-05-09T10:14:44.149Z,38.26
2024-05-09T10:15:44.157Z,38.27
2024-05-09T10:16:44.138Z,38.22
2024-05-09T10:17:44.240Z,38.22
2024-05-09T10:18:44.310Z,38.23
2024-05-09T10:19:44.247Z,38.24
2024-05-09T10:20:44.271Z,38.25
2024-05-09T10:21:44.226Z,38.22
2024-05-09T10:22:44.136Z,38.25
2024-05-09T10:23:44.579Z,38.23
2024-05-09T10:24:44.192Z,38.22
2024-05-09T10:25:44.186Z,38.22
2024-05-09T10:26:44.244Z,38.21
2024-05-09T10:27:44.307Z,38.21
2024-05-09T10:28:44.346Z,38.19
2024-05-09T10:29:44.362Z,38.18
2024-05-09T10:30:45.276Z,38.17
2024-05-09T10:31:44.694Z,38.17
2024-05-09T10:32:44.703Z,38.17
2024-05-09T10:33:44.778Z,38.16
2024-05-09T10:34:44.732Z,38.15
2024-05-09T10:35:44.674Z,38.14
2024-05-09T10:36:44.784Z,38.15
2024-05-09T10:37:44.779Z,38.14
2024-05-09T10:38:44.830Z,38.15
2024-05-09T10:39:44.899Z,38.15
2024-05-09T10:40:44.978Z,38.14
2024-05-09T10:41:44.987Z,38.13
2024-05-09T10:42:45.077Z,38.15
2024-05-09T10:43:45.089Z,38.13
2024-05-09T10:44:45.118Z,38.14
2024-05-09T10:45:45.223Z,38.13
2024-05-09T10:46:45.255Z,38.12
2024-05-09T10:47:45.408Z,38.12
2024-05-09T10:48:45.551Z,38.13
2024-05-09T10:49:45.434Z,38.12
2024-05-09T10:50:45.492Z,38.11
2024-05-09T10:51:45.558Z,38.11
2024-05-09T10:52:45.571Z,38.10
2024-05-09T10:53:46.156Z,38.12
2024-05-09T10:54:45.738Z,38.09
2024-05-09T10:55:45.773Z,38.09
2024-05-09T10:56:45.809Z,38.12
2024-05-09T10:57:45.894Z,38.09
2024-05-09T10:58:45.958Z,38.12
2024-05-09T10:59:45.955Z,38.11
2024-05-09T11:00:46.133Z,38.11
2024-05-09T11:01:46.172Z,38.08
2024-05-09T11:02:46.218Z,38.07
2024-05-09T11:03:46.510Z,38.06
2024-05-09T11:04:46.296Z,38.05
2024-05-09T11:05:46.362Z,38.05
2024-05-09T11:06:46.426Z,38.06
2024-05-09T11:07:46.403Z,38.05
2024-05-09T11:08:46.617Z,38.08
2024-05-09T11:09:46.533Z,38.07
2024-05-09T11:10:46.709Z,38.06
2024-05-09T11:11:46.722Z,38.05
2024-05-09T11:12:46.766Z,38.04
2024-05-09T11:13:46.838Z,38.04
2024-05-09T11:14:46.846Z,38.04
2024-05-09T11:15:46.992Z,38.06
2024-05-09T11:16:47.012Z,38.03
2024-05-09T11:17:47.169Z,38.03
2024-05-09T11:18:47.269Z,38.04
2024-05-09T11:19:47.212Z,38.02
2024-05-09T11:20:47.334Z,38.02
2024-05-09T11:21:47.377Z,38.02
2024-05-09T11:22:47.418Z,38.01
2024-05-09T11:23:47.464Z,38.01
2024-05-09T11:24:47.574Z,38.00
2024-05-09T11:25:47.641Z,38.00
2024-05-09T11:26:47.708Z,38.01
2024-05-09T11:27:47.811Z,37.99
2024-05-09T11:28:47.877Z,38.00
2024-05-09T11:29:47.923Z,37.99
2024-05-09T11:30:48.046Z,37.99
2024-05-09T11:31:48.162Z,37.99
2024-05-09T11:32:48.251Z,37.99
2024-05-09T11:33:48.371Z,38.01
2024-05-09T11:34:48.262Z,38.01
2024-05-09T11:35:48.321Z,38.00
2024-05-09T11:36:48.489Z,37.99
2024-05-09T11:37:48.497Z,37.99
2024-05-09T11:38:48.565Z,38.00
2024-05-09T11:39:48.666Z,37.99
2024-05-09T11:40:48.763Z,37.98
2024-05-09T11:41:48.725Z,38.00
2024-05-09T11:42:50.832Z,37.98
2024-05-09T11:43:48.810Z,37.96
2024-05-09T11:44:48.815Z,37.96
2024-05-09T11:45:48.827Z,37.95
2024-05-09T11:46:48.812Z,37.94
2024-05-09T11:47:48.901Z,37.94
2024-05-09T11:48:49.096Z,37.93
2024-05-09T11:49:48.854Z,37.93
2024-05-09T11:50:48.796Z,37.91
2024-05-09T11:51:48.867Z,37.89
2024-05-09T11:52:48.793Z,37.90
2024-05-09T11:53:49.168Z,37.92
2024-05-09T11:54:48.846Z,37.87
2024-05-09T11:55:48.858Z,37.87
2024-05-09T11:56:48.829Z,37.89
2024-05-09T11:57:48.837Z,37.88
2024-05-09T11:58:48.859Z,37.88
2024-05-09T11:59:48.881Z,37.89
2024-05-09T12:00:49.070Z,37.88
2024-05-09T12:01:49.030Z,37.87
2024-05-09T12:02:48.846Z,37.88
2024-05-09T12:03:48.966Z,37.88
2024-05-09T12:04:49.003Z,37.84
2024-05-09T12:05:48.949Z,37.86
2024-05-09T12:06:48.886Z,37.86
2024-05-09T12:07:48.862Z,37.85
2024-05-09T12:08:48.858Z,37.82
2024-05-09T12:09:48.959Z,37.82
2024-05-09T12:10:49.200Z,37.80
2024-05-09T12:11:48.984Z,37.79
2024-05-09T12:12:49.068Z,37.80
2024-05-09T12:13:49.104Z,37.80
2024-05-09T12:14:49.172Z,37.80
2024-05-09T12:15:49.301Z,37.78
2024-05-09T12:16:49.317Z,37.77
2024-05-09T12:17:50.941Z,37.79
2024-05-09T12:18:49.568Z,37.79
2024-05-09T12:19:49.513Z,37.75
2024-05-09T12:20:49.572Z,37.75
2024-05-09T12:21:49.659Z,37.73
2024-05-09T12:22:49.737Z,37.74
2024-05-09T12:23:49.777Z,37.74
2024-05-09T12:24:49.887Z,37.70
2024-05-09T12:25:49.958Z,37.73
2024-05-09T12:26:50.007Z,37.73
2024-05-09T12:27:50.133Z,37.76
2024-05-09T12:28:50.131Z,37.78
2024-05-09T12:29:50.225Z,37.74
2024-05-09T12:30:50.375Z,37.73
2024-05-09T12:31:50.364Z,37.74
2024-05-09T12:32:50.511Z,37.73
2024-05-09T12:33:50.564Z,37.69
2024-05-09T12:34:50.538Z,37.71
2024-05-09T12:35:51.170Z,37.74
2024-05-09T12:36:50.668Z,37.72
2024-05-09T12:37:50.723Z,37.73
2024-05-09T12:38:51.154Z,37.70
2024-05-09T12:39:50.901Z,37.70
2024-05-09T12:40:51.078Z,37.69
2024-05-09T12:41:51.008Z,37.69
2024-05-09T12:42:51.168Z,37.68
2024-05-09T12:43:51.114Z,37.70
2024-05-09T12:44:51.198Z,37.68
2024-05-09T12:45:51.319Z,37.67
2024-05-09T12:46:51.334Z,37.69
2024-05-09T12:47:51.470Z,37.68
2024-05-09T12:48:51.656Z,37.69
2024-05-09T12:49:51.586Z,37.65
2024-05-09T12:50:51.688Z,37.69
2024-05-09T12:51:51.693Z,37.69
2024-05-09T12:52:51.749Z,37.68
2024-05-09T12:53:51.840Z,37.66
2024-05-09T12:54:51.927Z,37.69
2024-05-09T12:55:56.761Z,37.67
2024-05-09T12:56:52.984Z,37.70
2024-05-09T12:57:52.032Z,37.72